sensor_id;sensor_type;location;lat;lon;timestamp;temperature;humidity
46037;DHT22;31769;49.304;8.428;2023-12-20T06:20:33;6.40;99.90
46037;DHT22;31769;49.304;8.428;2023-12-20T06:23:34;6.40;99.90
46037;DHT22;31769;49.304;8.428;2023-12-20T06:26:34;6.20;99.90
46037;DHT22;31769;49.304;8.428;2023-12-20T06:29:35;6.40;99.90
46037;DHT22;31769;49.304;8.428;2023-12-20T06:32:35;6.40;99.90
46037;DHT22;31769;49.304;8.428;2023-12-20T06:35:36;6.30;99.90
46037;DHT22;31769;49.304;8.428;2023-12-20T06:38:37;6.30;99.90
46037;DHT22;31769;49.304;8.428;2023-12-20T06:41:38;7.20;99.90
46037;DHT22;31769;49.304;8.428;2023-12-20T06:44:39;6.30;99.90
46037;DHT22;31769;49.304;8.428;2023-12-20T06:47:40;6.40;99.90
46037;DHT22;31769;49.304;8.428;2023-12-20T06:50:41;6.40;99.90
46037;DHT22;31769;49.304;8.428;2023-12-20T06:53:41;6.40;99.90
46037;DHT22;31769;49.304;8.428;2023-12-20T06:56:42;6.40;99.90
46037;DHT22;31769;49.304;8.428;2023-12-20T06:59:43;6.40;99.90
46037;DHT22;31769;49.304;8.428;2023-12-20T07:02:44;6.50;99.90
46037;DHT22;31769;49.304;8.428;2023-12-20T07:05:45;6.50;99.90
46037;DHT22;31769;49.304;8.428;2023-12-20T07:08:46;6.50;99.90
46037;DHT22;31769;49.304;8.428;2023-12-20T07:11:47;6.50;99.90
46037;DHT22;31769;49.304;8.428;2023-12-20T07:14:48;6.50;99.90
46037;DHT22;31769;49.304;8.428;2023-12-20T07:17:48;6.50;99.90
46037;DHT22;31769;49.304;8.428;2023-12-20T07:20:50;6.50;99.90
46037;DHT22;31769;49.304;8.428;2023-12-20T07:23:50;6.40;99.90
46037;DHT22;31769;49.304;8.428;2023-12-20T07:26:51;6.30;99.90
46037;DHT22;31769;49.304;8.428;2023-12-20T07:29:52;6.30;99.90
46037;DHT22;31769;49.304;8.428;2023-12-20T07:32:53;6.20;99.90
46037;DHT22;31769;49.304;8.428;2023-12-20T07:35:53;6.10;99.90
46037;DHT22;31769;49.304;8.428;2023-12-20T07:38:54;6.00;99.90
46037;DHT22;31769;49.304;8.428;2023-12-20T07:41:55;5.90;99.90
46037;DHT22;31769;49.304;8.428;2023-12-20T07:44:55;5.80;99.90
46037;DHT22;31769;49.304;8.428;2023-12-20T07:47:56;5.80;99.90
46037;DHT22;31769;49.304;8.428;2023-12-20T07:50:57;5.80;99.90
46037;DHT22;31769;49.304;8.428;2023-12-20T07:53:57;5.80;99.90
46037;DHT22;31769;49.304;8.428;2023-12-20T07:56:58;5.80;99.90
46037;DHT22;31769;49.304;8.428;2023-12-20T07:59:59;5.80;99.90
46037;DHT22;31769;49.304;8.428;2023-12-20T08:02:59;5.90;99.90
46037;DHT22;31769;49.304;8.428;2023-12-20T08:06:03;6.00;99.90
46037;DHT22;31769;49.304;8.428;2023-12-20T08:09:04;6.00;99.90
46037;DHT22;31769;49.304;8.428;2023-12-20T08:12:05;6.10;99.90
46037;DHT22;31769;49.304;8.428;2023-12-20T08:15:06;6.10;99.90
46037;DHT22;31769;49.304;8.428;2023-12-20T08:18:07;6.10;99.90
46037;DHT22;31769;49.304;8.428;2023-12-20T08:21:08;6.10;99.90
46037;DHT22;31769;49.304;8.428;2023-12-20T08:24:08;6.10;99.90
46037;DHT22;31769;49.304;8.428;2023-12-20T08:27:09;6.20;99.90
46037;DHT22;31769;49.304;8.428;2023-12-20T08:30:10;6.20;99.90
46037;DHT22;31769;49.304;8.428;2023-12-20T08:33:11;6.20;99.90
46037;DHT22;31769;49.304;8.428;2023-12-20T08:36:13;6.30;99.90
46037;DHT22;31769;49.304;8.428;2023-12-20T08:39:14;6.20;99.90
46037;DHT22;31769;49.304;8.428;2023-12-20T08:42:15;6.20;99.90
46037;DHT22;31769;49.304;8.428;2023-12-20T08:45:16;6.20;99.90
46037;DHT22;31769;49.304;8.428;2023-12-20T08:48:16;6.20;99.90
46037;DHT22;31769;49.304;8.428;2023-12-20T08:51:17;6.30;99.90
46037;DHT22;31769;49.304;8.428;2023-12-20T08:54:18;6.30;99.90
46037;DHT22;31769;49.304;8.428;2023-12-20T08:57:20;6.30;99.90
46037;DHT22;31769;49.304;8.428;2023-12-20T09:00:21;6.40;99.90
46037;DHT22;31769;49.304;8.428;2023-12-20T09:03:24;6.40;99.90
46037;DHT22;31769;49.304;8.428;2023-12-20T09:06:25;6.50;99.90
46037;DHT22;31769;49.304;8.428;2023-12-20T09:09:26;6.50;99.90
46037;DHT22;31769;49.304;8.428;2023-12-20T09:12:26;6.50;99.90
46037;DHT22;31769;49.304;8.428;2023-12-20T09:15:28;6.50;99.90
46037;DHT22;31769;49.304;8.428;2023-12-20T09:18:30;6.60;99.90
46037;DHT22;31769;49.304;8.428;2023-12-20T09:21:31;6.50;99.90
46037;DHT22;31769;49.304;8.428;2023-12-20T09:24:32;6.70;99.90
46037;DHT22;31769;49.304;8.428;2023-12-20T09:27:32;6.70;99.90
46037;DHT22;31769;49.304;8.428;2023-12-20T09:30:33;6.80;99.90
46037;DHT22;31769;49.304;8.428;2023-12-20T09:33:35;6.90;99.90
46037;DHT22;31769;49.304;8.428;2023-12-20T09:36:36;7.00;99.90
46037;DHT22;31769;49.304;8.428;2023-12-20T09:39:37;6.90;99.90
46037;DHT22;31769;49.304;8.428;2023-12-20T09:43:03;6.80;99.90
46037;DHT22;31769;49.304;8.428;2023-12-20T09:46:06;6.80;99.90
46037;DHT22;31769;49.304;8.428;2023-12-20T09:49:11;6.70;99.90
46037;DHT22;31769;49.304;8.428;2023-12-20T09:52:13;6.80;99.90
46037;DHT22;31769;49.304;8.428;2023-12-20T09:55:15;6.80;99.90
46037;DHT22;31769;49.304;8.428;2023-12-20T09:58:17;6.70;99.90
46037;DHT22;31769;49.304;8.428;2023-12-20T10:01:18;6.70;99.90
46037;DHT22;31769;49.304;8.428;2023-12-20T10:04:19;6.70;99.90
46037;DHT22;31769;49.304;8.428;2023-12-20T10:07:20;6.70;99.90
46037;DHT22;31769;49.304;8.428;2023-12-20T10:10:23;6.80;99.90
46037;DHT22;31769;49.304;8.428;2023-12-20T10:13:23;7.00;99.90
46037;DHT22;31769;49.304;8.428;2023-12-20T10:16:25;7.00;99.90
46037;DHT22;31769;49.304;8.428;2023-12-20T10:19:26;7.10;99.90
46037;DHT22;31769;49.304;8.428;2023-12-20T10:22:26;7.20;99.90
46037;DHT22;31769;49.304;8.428;2023-12-20T10:25:28;7.00;99.90
46037;DHT22;31769;49.304;8.428;2023-12-20T10:28:33;6.90;99.90
46037;DHT22;31769;49.304;8.428;2023-12-20T10:31:35;6.90;99.90
46037;DHT22;31769;49.304;8.428;2023-12-20T10:34:35;6.90;99.90
46037;DHT22;31769;49.304;8.428;2023-12-20T10:37:37;7.10;99.90
46037;DHT22;31769;49.304;8.428;2023-12-20T10:40:38;7.30;99.90
46037;DHT22;31769;49.304;8.428;2023-12-20T10:43:39;7.50;99.90
46037;DHT22;31769;49.304;8.428;2023-12-20T10:46:41;7.50;99.90
46037;DHT22;31769;49.304;8.428;2023-12-20T10:49:48;7.50;99.90
46037;DHT22;31769;49.304;8.428;2023-12-20T10:52:50;7.50;99.90
46037;DHT22;31769;49.304;8.428;2023-12-20T10:55:56;7.50;99.90
46037;DHT22;31769;49.304;8.428;2023-12-20T10:59:02;7.40;99.90
46037;DHT22;31769;49.304;8.428;2023-12-20T11:02:05;7.40;99.90
46037;DHT22;31769;49.304;8.428;2023-12-20T11:05:38;7.40;99.90
46037;DHT22;31769;49.304;8.428;2023-12-20T11:08:49;7.40;99.90
46037;DHT22;31769;49.304;8.428;2023-12-20T11:12:13;7.30;99.90
46037;DHT22;31769;49.304;8.428;2023-12-20T11:15:13;7.30;99.90
46037;DHT22;31769;49.304;8.428;2023-12-20T11:18:15;7.20;99.90
46037;DHT22;31769;49.304;8.428;2023-12-20T11:21:16;7.30;99.90
46037;DHT22;31769;49.304;8.428;2023-12-20T11:24:22;7.30;99.90
46037;DHT22;31769;49.304;8.428;2023-12-20T11:27:24;7.30;99.90
46037;DHT22;31769;49.304;8.428;2023-12-20T11:30:25;7.20;99.90
46037;DHT22;31769;49.304;8.428;2023-12-20T11:33:40;7.30;99.90
46037;DHT22;31769;49.304;8.428;2023-12-20T11:36:41;7.20;99.90
46037;DHT22;31769;49.304;8.428;2023-12-20T11:39:43;7.10;99.90
46037;DHT22;31769;49.304;8.428;2023-12-20T11:42:45;7.10;99.90
46037;DHT22;31769;49.304;8.428;2023-12-20T11:45:51;7.20;99.90
46037;DHT22;31769;49.304;8.428;2023-12-20T11:48:52;7.10;99.90
46037;DHT22;31769;49.304;8.428;2023-12-20T11:51:53;7.10;99.90
46037;DHT22;31769;49.304;8.428;2023-12-20T11:54:53;7.10;99.90
46037;DHT22;31769;49.304;8.428;2023-12-20T11:57:54;7.20;99.90
46037;DHT22;31769;49.304;8.428;2023-12-20T12:00:55;7.20;99.90
46037;DHT22;31769;49.304;8.428;2023-12-20T12:04:06;7.10;99.90
46037;DHT22;31769;49.304;8.428;2023-12-20T12:07:07;7.20;99.90
46037;DHT22;31769;49.304;8.428;2023-12-20T12:10:08;7.10;99.90
46037;DHT22;31769;49.304;8.428;2023-12-20T12:13:09;7.10;99.90
46037;DHT22;31769;49.304;8.428;2023-12-20T12:16:10;7.10;99.90
46037;DHT22;31769;49.304;8.428;2023-12-20T12:19:21;7.10;99.90
46037;DHT22;31769;49.304;8.428;2023-12-20T12:22:22;6.90;99.90
46037;DHT22;31769;49.304;8.428;2023-12-20T12:25:29;6.90;99.90
46037;DHT22;31769;49.304;8.428;2023-12-20T12:28:30;6.90;99.90
46037;DHT22;31769;49.304;8.428;2023-12-20T12:31:33;6.80;99.90
46037;DHT22;31769;49.304;8.428;2023-12-20T12:34:34;6.80;99.90
46037;DHT22;31769;49.304;8.428;2023-12-20T12:37:38;6.80;99.90
46037;DHT22;31769;49.304;8.428;2023-12-20T12:40:39;6.30;99.90
46037;DHT22;31769;49.304;8.428;2023-12-20T12:43:41;6.80;99.90
46037;DHT22;31769;49.304;8.428;2023-12-20T12:46:42;6.90;99.90
46037;DHT22;31769;49.304;8.428;2023-12-20T12:49:42;6.80;99.90
46037;DHT22;31769;49.304;8.428;2023-12-20T12:52:43;6.90;99.90
46037;DHT22;31769;49.304;8.428;2023-12-20T12:55:44;6.90;99.90
46037;DHT22;31769;49.304;8.428;2023-12-20T12:58:45;6.90;99.90
46037;DHT22;31769;49.304;8.428;2023-12-20T13:01:45;6.80;99.90
46037;DHT22;31769;49.304;8.428;2023-12-20T13:04:46;6.90;99.90
46037;DHT22;31769;49.304;8.428;2023-12-20T13:07:47;6.90;99.90
46037;DHT22;31769;49.304;8.428;2023-12-20T13:10:48;6.90;99.90
46037;DHT22;31769;49.304;8.428;2023-12-20T13:13:49;6.90;99.90
46037;DHT22;31769;49.304;8.428;2023-12-20T13:16:50;6.90;99.90
46037;DHT22;31769;49.304;8.428;2023-12-20T13:19:50;6.90;99.90
46037;DHT22;31769;49.304;8.428;2023-12-20T13:22:51;6.90;99.90
46037;DHT22;31769;49.304;8.428;2023-12-20T13:25:52;6.90;99.90
46037;DHT22;31769;49.304;8.428;2023-12-20T13:28:54;6.90;99.90
46037;DHT22;31769;49.304;8.428;2023-12-20T13:31:55;6.90;99.90
46037;DHT22;31769;49.304;8.428;2023-12-20T13:34:55;6.90;99.90
46037;DHT22;31769;49.304;8.428;2023-12-20T13:37:56;6.90;99.90
46037;DHT22;31769;49.304;8.428;2023-12-20T13:40:57;7.00;99.90
46037;DHT22;31769;49.304;8.428;2023-12-20T13:43:59;7.10;99.90
46037;DHT22;31769;49.304;8.428;2023-12-20T13:46:59;7.20;99.90
46037;DHT22;31769;49.304;8.428;2023-12-20T13:50:00;7.40;99.90
46037;DHT22;31769;49.304;8.428;2023-12-20T13:53:01;7.70;99.90
46037;DHT22;31769;49.304;8.428;2023-12-20T13:56:04;7.80;99.90
46037;DHT22;31769;49.304;8.428;2023-12-20T13:59:05;7.60;99.90
46037;DHT22;31769;49.304;8.428;2023-12-20T14:02:06;7.50;99.90
46037;DHT22;31769;49.304;8.428;2023-12-20T14:05:07;7.40;99.90
46037;DHT22;31769;49.304;8.428;2023-12-20T14:08:08;7.50;99.90
46037;DHT22;31769;49.304;8.428;2023-12-20T14:11:10;7.70;99.90
46037;DHT22;31769;49.304;8.428;2023-12-20T14:14:11;9.60;99.90
46037;DHT22;31769;49.304;8.428;2023-12-20T14:17:12;10.80;99.90
46037;DHT22;31769;49.304;8.428;2023-12-20T14:20:13;12.30;99.90
46037;DHT22;31769;49.304;8.428;2023-12-20T14:23:14;12.90;99.90
46037;DHT22;31769;49.304;8.428;2023-12-20T14:26:17;12.70;99.90
46037;DHT22;31769;49.304;8.428;2023-12-20T14:29:18;12.50;99.90
46037;DHT22;31769;49.304;8.428;2023-12-20T14:32:18;12.90;99.90
46037;DHT22;31769;49.304;8.428;2023-12-20T14:35:19;13.10;99.90
46037;DHT22;31769;49.304;8.428;2023-12-20T14:38:20;12.80;99.90
46037;DHT22;31769;49.304;8.428;2023-12-20T14:41:20;12.10;99.90
46037;DHT22;31769;49.304;8.428;2023-12-20T14:44:22;11.50;99.90
46037;DHT22;31769;49.304;8.428;2023-12-20T14:47:22;11.20;99.90
46037;DHT22;31769;49.304;8.428;2023-12-20T14:50:23;10.20;99.90
46037;DHT22;31769;49.304;8.428;2023-12-20T14:53:24;9.10;99.90
46037;DHT22;31769;49.304;8.428;2023-12-20T14:56:25;8.20;99.90
46037;DHT22;31769;49.304;8.428;2023-12-20T14:59:26;7.70;99.90
46037;DHT22;31769;49.304;8.428;2023-12-20T15:02:27;7.40;99.90
46037;DHT22;31769;49.304;8.428;2023-12-20T15:05:27;7.20;99.90
46037;DHT22;31769;49.304;8.428;2023-12-20T15:08:28;7.00;99.90
46037;DHT22;31769;49.304;8.428;2023-12-20T15:11:29;6.90;99.90
46037;DHT22;31769;49.304;8.428;2023-12-20T15:14:29;6.80;99.90
46037;DHT22;31769;49.304;8.428;2023-12-20T15:17:30;6.80;99.90
46037;DHT22;31769;49.304;8.428;2023-12-20T15:20:31;6.70;99.90
46037;DHT22;31769;49.304;8.428;2023-12-20T15:23:33;6.70;99.90
46037;DHT22;31769;49.304;8.428;2023-12-20T15:26:38;6.60;99.90
46037;DHT22;31769;49.304;8.428;2023-12-20T15:29:39;6.60;99.90
46037;DHT22;31769;49.304;8.428;2023-12-20T15:32:40;6.50;99.90
46037;DHT22;31769;49.304;8.428;2023-12-20T15:35:41;6.50;99.90
46037;DHT22;31769;49.304;8.428;2023-12-20T15:38:42;6.60;99.90
46037;DHT22;31769;49.304;8.428;2023-12-20T15:41:42;6.60;99.90
46037;DHT22;31769;49.304;8.428;2023-12-20T15:44:44;6.60;99.90
46037;DHT22;31769;49.304;8.428;2023-12-20T15:47:45;6.60;99.90
46037;DHT22;31769;49.304;8.428;2023-12-20T15:50:45;6.50;99.90
46037;DHT22;31769;49.304;8.428;2023-12-20T15:53:46;6.50;99.90
46037;DHT22;31769;49.304;8.428;2023-12-20T15:56:46;6.50;99.90
46037;DHT22;31769;49.304;8.428;2023-12-20T15:59:48;6.50;99.90
46037;DHT22;31769;49.304;8.428;2023-12-20T16:02:50;6.50;99.90
46037;DHT22;31769;49.304;8.428;2023-12-20T16:05:52;6.50;99.90
46037;DHT22;31769;49.304;8.428;2023-12-20T16:08:54;6.50;99.90
46037;DHT22;31769;49.304;8.428;2023-12-20T16:11:54;6.50;99.90
46037;DHT22;31769;49.304;8.428;2023-12-20T16:14:55;6.50;99.90
46037;DHT22;31769;49.304;8.428;2023-12-20T16:17:56;6.50;99.90
46037;DHT22;31769;49.304;8.428;2023-12-20T16:20:56;6.50;99.90
46037;DHT22;31769;49.304;8.428;2023-12-20T16:23:57;6.50;99.90
46037;DHT22;31769;49.304;8.428;2023-12-20T16:26:58;6.60;99.90
46037;DHT22;31769;49.304;8.428;2023-12-20T16:30:00;6.60;99.90
46037;DHT22;31769;49.304;8.428;2023-12-20T16:33:00;6.60;99.90
46037;DHT22;31769;49.304;8.428;2023-12-20T16:36:01;6.60;99.90
46037;DHT22;31769;49.304;8.428;2023-12-20T16:39:02;6.60;99.90
46037;DHT22;31769;49.304;8.428;2023-12-20T16:42:03;6.60;99.90
46037;DHT22;31769;49.304;8.428;2023-12-20T16:45:04;6.70;99.90
46037;DHT22;31769;49.304;8.428;2023-12-20T16:48:05;6.70;99.90
46037;DHT22;31769;49.304;8.428;2023-12-20T16:51:06;6.70;99.90
46037;DHT22;31769;49.304;8.428;2023-12-20T16:54:07;6.70;99.90
46037;DHT22;31769;49.304;8.428;2023-12-20T16:57:08;6.70;99.90
46037;DHT22;31769;49.304;8.428;2023-12-20T17:00:09;6.70;99.90
46037;DHT22;31769;49.304;8.428;2023-12-20T17:03:10;6.70;99.90
46037;DHT22;31769;49.304;8.428;2023-12-20T17:06:10;6.70;99.90
46037;DHT22;31769;49.304;8.428;2023-12-20T17:09:11;6.70;99.90
46037;DHT22;31769;49.304;8.428;2023-12-20T17:12:12;6.70;99.90
46037;DHT22;31769;49.304;8.428;2023-12-20T17:15:13;6.70;99.90
46037;DHT22;31769;49.304;8.428;2023-12-20T17:18:14;6.70;99.90
46037;DHT22;31769;49.304;8.428;2023-12-20T17:21:15;6.80;99.90
46037;DHT22;31769;49.304;8.428;2023-12-20T17:24:16;6.80;99.90
46037;DHT22;31769;49.304;8.428;2023-12-20T17:27:17;7.10;99.90
46037;DHT22;31769;49.304;8.428;2023-12-20T17:30:18;6.80;99.90
46037;DHT22;31769;49.304;8.428;2023-12-20T17:33:18;7.20;99.90
46037;DHT22;31769;49.304;8.428;2023-12-20T17:36:19;6.80;99.90
46037;DHT22;31769;49.304;8.428;2023-12-20T17:39:20;6.90;99.90
46037;DHT22;31769;49.304;8.428;2023-12-20T17:42:20;6.90;99.90
46037;DHT22;31769;49.304;8.428;2023-12-20T17:45:21;6.90;99.90
46037;DHT22;31769;49.304;8.428;2023-12-20T17:48:22;6.90;99.90
46037;DHT22;31769;49.304;8.428;2023-12-20T17:51:23;6.90;99.90
46037;DHT22;31769;49.304;8.428;2023-12-20T17:54:23;6.90;99.90
46037;DHT22;31769;49.304;8.428;2023-12-20T17:57:26;6.90;99.90
46037;DHT22;31769;49.304;8.428;2023-12-20T18:00:28;6.90;99.90
46037;DHT22;31769;49.304;8.428;2023-12-20T18:03:31;6.90;99.90
46037;DHT22;31769;49.304;8.428;2023-12-20T18:06:32;7.10;99.90
46037;DHT22;31769;49.304;8.428;2023-12-20T18:09:33;6.90;99.90
46037;DHT22;31769;49.304;8.428;2023-12-20T18:12:34;7.00;99.90
46037;DHT22;31769;49.304;8.428;2023-12-20T18:15:34;6.90;99.90
46037;DHT22;31769;49.304;8.428;2023-12-20T18:18:38;7.70;99.90
46037;DHT22;31769;49.304;8.428;2023-12-20T18:21:39;6.90;99.90
46037;DHT22;31769;49.304;8.428;2023-12-20T18:24:39;7.00;99.90
46037;DHT22;31769;49.304;8.428;2023-12-20T18:27:40;7.00;99.90
46037;DHT22;31769;49.304;8.428;2023-12-20T18:30:41;7.00;99.90
46037;DHT22;31769;49.304;8.428;2023-12-20T18:33:41;7.00;99.90
46037;DHT22;31769;49.304;8.428;2023-12-20T18:36:43;7.00;99.90
46037;DHT22;31769;49.304;8.428;2023-12-20T18:39:43;7.00;99.90
46037;DHT22;31769;49.304;8.428;2023-12-20T18:42:44;6.90;99.90
46037;DHT22;31769;49.304;8.428;2023-12-20T18:45:46;6.90;99.90
46037;DHT22;31769;49.304;8.428;2023-12-20T18:48:47;6.90;99.90
46037;DHT22;31769;49.304;8.428;2023-12-20T18:51:47;6.90;99.90
46037;DHT22;31769;49.304;8.428;2023-12-20T18:54:48;6.90;99.90
46037;DHT22;31769;49.304;8.428;2023-12-20T18:57:49;6.90;99.90
46037;DHT22;31769;49.304;8.428;2023-12-20T19:00:49;6.80;99.90
46037;DHT22;31769;49.304;8.428;2023-12-20T19:03:50;6.80;99.90
46037;DHT22;31769;49.304;8.428;2023-12-20T19:06:52;6.80;99.90
46037;DHT22;31769;49.304;8.428;2023-12-20T19:09:57;6.80;99.90
46037;DHT22;31769;49.304;8.428;2023-12-20T19:12:57;6.80;99.90
46037;DHT22;31769;49.304;8.428;2023-12-20T19:15:59;6.80;99.90
46037;DHT22;31769;49.304;8.428;2023-12-20T19:19:00;6.80;99.90
46037;DHT22;31769;49.304;8.428;2023-12-20T19:22:00;6.80;99.90
46037;DHT22;31769;49.304;8.428;2023-12-20T19:25:01;6.80;99.90
46037;DHT22;31769;49.304;8.428;2023-12-20T19:28:06;6.80;99.90
46037;DHT22;31769;49.304;8.428;2023-12-20T19:31:07;6.80;99.90
46037;DHT22;31769;49.304;8.428;2023-12-20T19:34:10;6.80;99.90
46037;DHT22;31769;49.304;8.428;2023-12-20T19:37:11;6.80;99.90
46037;DHT22;31769;49.304;8.428;2023-12-20T19:40:12;6.80;99.90
46037;DHT22;31769;49.304;8.428;2023-12-20T19:43:12;6.80;99.90
46037;DHT22;31769;49.304;8.428;2023-12-20T19:46:14;6.80;99.90
46037;DHT22;31769;49.304;8.428;2023-12-20T19:49:14;6.80;99.90
46037;DHT22;31769;49.304;8.428;2023-12-20T19:52:15;6.70;99.90
46037;DHT22;31769;49.304;8.428;2023-12-20T19:55:16;6.70;99.90
46037;DHT22;31769;49.304;8.428;2023-12-20T19:58:16;6.70;99.90
46037;DHT22;31769;49.304;8.428;2023-12-20T20:01:17;6.80;99.90
46037;DHT22;31769;49.304;8.428;2023-12-20T20:04:18;6.70;99.90
46037;DHT22;31769;49.304;8.428;2023-12-20T20:07:19;6.70;99.90
46037;DHT22;31769;49.304;8.428;2023-12-20T20:10:23;6.60;99.90
46037;DHT22;31769;49.304;8.428;2023-12-20T20:13:24;6.60;99.90
46037;DHT22;31769;49.304;8.428;2023-12-20T20:16:25;6.60;99.90
46037;DHT22;31769;49.304;8.428;2023-12-20T20:19:26;6.60;99.90
46037;DHT22;31769;49.304;8.428;2023-12-20T20:22:27;6.60;99.90
46037;DHT22;31769;49.304;8.428;2023-12-20T20:25:27;6.50;99.90
46037;DHT22;31769;49.304;8.428;2023-12-20T20:28:28;6.50;99.90
46037;DHT22;31769;49.304;8.428;2023-12-20T20:31:29;6.40;99.90
46037;DHT22;31769;49.304;8.428;2023-12-20T20:34:34;6.30;99.90
46037;DHT22;31769;49.304;8.428;2023-12-20T20:37:34;6.30;99.90
46037;DHT22;31769;49.304;8.428;2023-12-20T20:40:35;6.20;99.90
46037;DHT22;31769;49.304;8.428;2023-12-20T20:43:37;6.20;99.90
46037;DHT22;31769;49.304;8.428;2023-12-20T20:46:38;6.20;99.90
46037;DHT22;31769;49.304;8.428;2023-12-20T20:49:38;6.20;99.90
46037;DHT22;31769;49.304;8.428;2023-12-20T20:52:39;6.10;99.90
46037;DHT22;31769;49.304;8.428;2023-12-20T20:55:40;6.10;99.90
46037;DHT22;31769;49.304;8.428;2023-12-20T20:58:40;6.10;99.90
46037;DHT22;31769;49.304;8.428;2023-12-20T21:01:41;6.10;99.90
46037;DHT22;31769;49.304;8.428;2023-12-20T21:04:43;6.10;99.90
46037;DHT22;31769;49.304;8.428;2023-12-20T21:07:44;6.00;99.90
46037;DHT22;31769;49.304;8.428;2023-12-20T21:10:44;6.00;99.90
46037;DHT22;31769;49.304;8.428;2023-12-20T21:13:47;6.00;99.90
46037;DHT22;31769;49.304;8.428;2023-12-20T21:16:48;6.00;99.90
46037;DHT22;31769;49.304;8.428;2023-12-20T21:19:49;6.00;99.90
46037;DHT22;31769;49.304;8.428;2023-12-20T21:22:49;5.90;99.90
46037;DHT22;31769;49.304;8.428;2023-12-20T21:25:50;5.90;99.90
46037;DHT22;31769;49.304;8.428;2023-12-20T21:28:51;6.00;99.90
46037;DHT22;31769;49.304;8.428;2023-12-20T21:31:52;6.00;99.90
46037;DHT22;31769;49.304;8.428;2023-12-20T21:34:52;6.00;99.90
46037;DHT22;31769;49.304;8.428;2023-12-20T21:37:53;5.90;99.90
46037;DHT22;31769;49.304;8.428;2023-12-20T21:40:54;5.90;99.90
46037;DHT22;31769;49.304;8.428;2023-12-20T21:43:55;5.90;99.90
46037;DHT22;31769;49.304;8.428;2023-12-20T21:46:55;5.90;99.90
46037;DHT22;31769;49.304;8.428;2023-12-20T21:49:56;5.90;99.90
46037;DHT22;31769;49.304;8.428;2023-12-20T21:52:57;5.90;99.90
46037;DHT22;31769;49.304;8.428;2023-12-20T21:55:58;5.90;99.90
46037;DHT22;31769;49.304;8.428;2023-12-20T21:58:59;5.90;99.90
46037;DHT22;31769;49.304;8.428;2023-12-20T22:01:59;5.90;99.90
46037;DHT22;31769;49.304;8.428;2023-12-20T22:05:00;5.90;99.90
46037;DHT22;31769;49.304;8.428;2023-12-20T22:08:01;5.90;99.90
46037;DHT22;31769;49.304;8.428;2023-12-20T22:11:01;5.90;99.90
46037;DHT22;31769;49.304;8.428;2023-12-20T22:14:02;5.80;99.90
46037;DHT22;31769;49.304;8.428;2023-12-20T22:17:03;5.80;99.90
46037;DHT22;31769;49.304;8.428;2023-12-20T22:20:04;5.80;99.90
46037;DHT22;31769;49.304;8.428;2023-12-20T22:23:05;5.80;99.90
46037;DHT22;31769;49.304;8.428;2023-12-20T22:26:08;5.90;99.90
46037;DHT22;31769;49.304;8.428;2023-12-20T22:29:08;5.90;99.90
46037;DHT22;31769;49.304;8.428;2023-12-20T22:32:10;5.90;99.90
46037;DHT22;31769;49.304;8.428;2023-12-20T22:35:10;5.80;99.90
46037;DHT22;31769;49.304;8.428;2023-12-20T22:38:12;5.90;99.90
46037;DHT22;31769;49.304;8.428;2023-12-20T22:41:13;5.90;99.90
46037;DHT22;31769;49.304;8.428;2023-12-20T22:44:16;5.90;99.90
46037;DHT22;31769;49.304;8.428;2023-12-20T22:47:17;5.80;99.90
46037;DHT22;31769;49.304;8.428;2023-12-20T22:50:17;5.80;99.90
46037;DHT22;31769;49.304;8.428;2023-12-20T22:53:18;5.80;99.90
46037;DHT22;31769;49.304;8.428;2023-12-20T22:56:19;5.70;99.90
46037;DHT22;31769;49.304;8.428;2023-12-20T22:59:20;5.80;99.90
46037;DHT22;31769;49.304;8.428;2023-12-20T23:02:21;5.80;99.90
46037;DHT22;31769;49.304;8.428;2023-12-20T23:05:21;5.90;99.90
46037;DHT22;31769;49.304;8.428;2023-12-20T23:08:22;5.90;99.90
46037;DHT22;31769;49.304;8.428;2023-12-20T23:11:23;5.90;99.90
46037;DHT22;31769;49.304;8.428;2023-12-20T23:14:23;5.90;99.90
46037;DHT22;31769;49.304;8.428;2023-12-20T23:17:24;5.90;99.90
46037;DHT22;31769;49.304;8.428;2023-12-20T23:20:25;6.00;99.90
46037;DHT22;31769;49.304;8.428;2023-12-20T23:23:25;6.00;99.90
46037;DHT22;31769;49.304;8.428;2023-12-20T23:26:26;6.10;99.90
46037;DHT22;31769;49.304;8.428;2023-12-20T23:29:26;6.10;99.90
46037;DHT22;31769;49.304;8.428;2023-12-20T23:32:27;6.00;99.90
46037;DHT22;31769;49.304;8.428;2023-12-20T23:35:28;6.10;99.90
46037;DHT22;31769;49.304;8.428;2023-12-20T23:38:29;6.10;99.90
46037;DHT22;31769;49.304;8.428;2023-12-20T23:41:30;6.00;99.90
46037;DHT22;31769;49.304;8.428;2023-12-20T23:44:30;6.00;99.90
46037;DHT22;31769;49.304;8.428;2023-12-20T23:47:31;6.00;99.90
46037;DHT22;31769;49.304;8.428;2023-12-20T23:50:32;6.00;99.90
46037;DHT22;31769;49.304;8.428;2023-12-20T23:53:32;6.00;99.90
46037;DHT22;31769;49.304;8.428;2023-12-20T23:56:35;5.90;99.90
46037;DHT22;31769;49.304;8.428;2023-12-20T23:59:36;6.00;99.90
